createdAt,value
2022-08-26T00:02:08.003Z,56.20
2022-08-26T00:04:35.847Z,56.70
2022-08-26T00:07:03.722Z,58.20
2022-08-26T00:09:33.893Z,59.40
2022-08-26T00:12:07.468Z,59.60
2022-08-26T00:14:36.745Z,61.60
2022-08-26T00:17:05.977Z,62.80
2022-08-26T00:19:36.461Z,65.20
2022-08-26T00:22:04.336Z,65.50
2022-08-26T00:24:32.609Z,68.50
2022-08-26T00:27:00.428Z,69.20
2022-08-26T00:29:28.981Z,68.50
2022-08-26T00:31:59.695Z,69.40
2022-08-26T00:34:29.694Z,71.80
2022-08-26T00:36:57.495Z,71.30
2022-08-26T00:39:25.327Z,72.60
2022-08-26T00:41:53.335Z,74.10
2022-08-26T00:44:21.529Z,75.00
2022-08-26T00:46:54.667Z,74.60
2022-08-26T00:49:28.411Z,74.10
2022-08-26T00:52:03.050Z,73.40
2022-08-26T00:54:37.433Z,71.70
2022-08-26T00:57:16.365Z,69.80
2022-08-26T00:59:46.935Z,69.80
2022-08-26T01:02:20.196Z,69.60
2022-08-26T01:04:55.451Z,68.70
2022-08-26T01:07:27.412Z,68.00
2022-08-26T01:09:58.348Z,66.70
2022-08-26T01:12:29.765Z,66.30
2022-08-26T01:14:57.602Z,65.90
2022-08-26T01:17:26.507Z,67.00
2022-08-26T01:20:01.000Z,69.70
2022-08-26T01:22:33.618Z,70.40
2022-08-26T01:25:03.893Z,71.70
2022-08-26T01:27:32.908Z,70.90
2022-08-26T01:30:03.120Z,69.00
2022-08-26T01:32:33.179Z,67.50
2022-08-26T01:35:01.807Z,66.90
2022-08-26T01:37:34.867Z,66.40
2022-08-26T01:40:07.107Z,67.10
2022-08-26T01:42:35.739Z,66.70
2022-08-26T01:45:10.044Z,67.40
2022-08-26T01:47:39.461Z,67.70
2022-08-26T01:50:18.001Z,67.80
2022-08-26T01:52:57.532Z,67.70
2022-08-26T01:55:33.185Z,67.40
2022-08-26T01:58:05.576Z,67.40
2022-08-26T02:00:35.191Z,67.10
2022-08-26T02:03:17.492Z,67.00
2022-08-26T02:05:47.390Z,66.80
2022-08-26T02:08:24.543Z,66.70
2022-08-26T02:10:55.042Z,67.00
2022-08-26T02:13:25.257Z,67.00
2022-08-26T02:15:54.066Z,67.30
2022-08-26T02:18:22.378Z,67.70
2022-08-26T02:21:10.913Z,67.60
2022-08-26T02:23:38.980Z,68.20
2022-08-26T02:26:11.929Z,68.50
2022-08-26T02:28:54.136Z,68.90
2022-08-26T02:31:22.528Z,72.60
2022-08-26T02:33:50.355Z,78.30
2022-08-26T02:36:20.898Z,82.10
2022-08-26T02:38:48.765Z,86.30
2022-08-26T02:41:18.152Z,83.30
2022-08-26T02:43:46.045Z,83.00
2022-08-26T02:46:21.474Z,81.80
2022-08-26T02:48:56.128Z,81.20
2022-08-26T02:51:24.311Z,80.80
2022-08-26T02:53:52.103Z,80.10
2022-08-26T02:56:21.231Z,81.60
2022-08-26T02:58:49.669Z,84.50
2022-08-26T03:01:22.906Z,86.80
2022-08-26T03:03:50.811Z,86.10
2022-08-26T03:06:19.381Z,85.50
2022-08-26T03:08:47.527Z,84.90
2022-08-26T03:11:15.672Z,84.20
2022-08-26T03:13:45.148Z,83.40
2022-08-26T03:16:14.196Z,82.70
2022-08-26T03:18:42.596Z,82.70
2022-08-26T03:21:12.817Z,82.40
2022-08-26T03:23:41.840Z,80.60
2022-08-26T03:26:12.468Z,79.80
2022-08-26T03:29:01.809Z,79.90
2022-08-26T03:31:30.647Z,79.90
2022-08-26T03:33:59.536Z,79.10
2022-08-26T03:36:28.120Z,79.00
2022-08-26T03:38:57.216Z,79.70
2022-08-26T03:41:25.276Z,79.10
2022-08-26T03:43:53.322Z,78.70
2022-08-26T03:46:21.563Z,78.10
2022-08-26T03:48:50.735Z,78.00
2022-08-26T03:51:20.537Z,77.50
2022-08-26T03:53:49.008Z,78.30
2022-08-26T03:56:16.904Z,81.80
2022-08-26T03:58:45.883Z,85.60
2022-08-26T04:01:16.225Z,83.70
2022-08-26T04:04:07.372Z,81.80
2022-08-26T04:06:39.416Z,81.70
2022-08-26T04:09:10.107Z,82.70
2022-08-26T04:11:39.622Z,82.00
2022-08-26T04:14:10.138Z,83.10
2022-08-26T04:16:38.820Z,83.90
2022-08-26T04:19:07.146Z,85.30
2022-08-26T04:21:38.177Z,87.00
2022-08-26T04:24:10.248Z,90.10
2022-08-26T04:26:42.825Z,90.50
2022-08-26T04:29:14.085Z,91.90
2022-08-26T04:31:42.005Z,91.90
2022-08-26T04:34:11.093Z,90.80
2022-08-26T04:36:40.909Z,89.20
2022-08-26T04:39:12.160Z,88.00
2022-08-26T04:41:40.127Z,87.70
2022-08-26T04:44:08.593Z,87.30
2022-08-26T04:46:39.871Z,86.70
2022-08-26T04:49:12.363Z,83.20
2022-08-26T04:51:41.723Z,82.20
2022-08-26T04:54:11.724Z,82.00
2022-08-26T04:56:42.611Z,81.70
2022-08-26T04:59:17.055Z,81.60
2022-08-26T05:01:47.784Z,81.40
2022-08-26T05:04:34.737Z,85.90
2022-08-26T05:07:05.767Z,87.70
2022-08-26T05:09:34.624Z,90.00
2022-08-26T05:12:02.446Z,88.30
2022-08-26T05:14:31.047Z,88.90
2022-08-26T05:16:58.895Z,89.10
2022-08-26T05:19:27.900Z,89.70
2022-08-26T05:21:55.960Z,89.80
2022-08-26T05:24:25.225Z,88.20
2022-08-26T05:26:53.059Z,85.00
2022-08-26T05:29:20.887Z,84.00
2022-08-26T05:31:52.524Z,82.60
2022-08-26T05:34:20.709Z,81.70
2022-08-26T05:36:48.590Z,80.80
2022-08-26T05:39:16.379Z,81.30
2022-08-26T05:41:45.819Z,81.60
2022-08-26T05:44:17.307Z,80.70
2022-08-26T05:46:45.913Z,78.40
2022-08-26T05:49:15.423Z,76.80
2022-08-26T05:51:46.298Z,75.90
2022-08-26T05:54:22.283Z,75.00
2022-08-26T05:56:51.842Z,74.50
2022-08-26T05:59:21.402Z,73.30
2022-08-26T06:01:52.485Z,73.40
2022-08-26T06:04:20.340Z,72.90
2022-08-26T06:06:48.696Z,73.70
2022-08-26T06:09:18.252Z,71.90
2022-08-26T06:11:46.140Z,70.90
2022-08-26T06:14:15.281Z,70.20
2022-08-26T06:16:45.084Z,69.80
2022-08-26T06:19:15.424Z,70.10
2022-08-26T06:21:46.019Z,68.80
2022-08-26T06:24:33.328Z,68.00
2022-08-26T06:27:04.179Z,67.50
2022-08-26T06:29:36.153Z,67.60
2022-08-26T06:32:06.704Z,67.00
2022-08-26T06:34:34.755Z,66.30
2022-08-26T06:37:03.617Z,65.50
2022-08-26T06:39:32.278Z,65.70
2022-08-26T06:42:00.460Z,64.10
2022-08-26T06:44:28.544Z,62.40
2022-08-26T06:46:57.880Z,59.50
2022-08-26T06:49:27.403Z,56.80
2022-08-26T06:51:57.893Z,55.10
2022-08-26T06:54:26.453Z,53.10
2022-08-26T06:56:56.628Z,51.50
2022-08-26T06:59:25.241Z,50.60
2022-08-26T07:01:53.546Z,49.70
2022-08-26T07:04:24.407Z,49.20
2022-08-26T07:06:53.809Z,48.10
2022-08-26T07:09:23.172Z,48.30
2022-08-26T07:11:52.134Z,47.50
2022-08-26T07:14:21.636Z,46.90
2022-08-26T07:16:50.604Z,46.40
2022-08-26T07:19:29.007Z,46.40
2022-08-26T07:22:03.277Z,46.80
2022-08-26T07:24:32.277Z,45.50
2022-08-26T07:27:01.919Z,43.70
2022-08-26T07:29:31.358Z,42.50
2022-08-26T07:31:59.641Z,41.90
2022-08-26T07:34:28.121Z,41.30
2022-08-26T07:36:56.723Z,41.60
2022-08-26T07:39:26.783Z,42.10
2022-08-26T07:41:55.065Z,41.90
2022-08-26T07:44:22.999Z,41.80
2022-08-26T07:46:53.498Z,41.40
2022-08-26T07:49:23.480Z,40.10
2022-08-26T07:51:52.148Z,39.40
2022-08-26T07:54:20.019Z,39.00
2022-08-26T07:56:54.088Z,39.30
2022-08-26T07:59:23.964Z,40.20
2022-08-26T08:01:52.331Z,41.10
2022-08-26T08:04:26.221Z,41.90
2022-08-26T08:06:54.969Z,42.50
2022-08-26T08:09:23.532Z,42.40
2022-08-26T08:11:54.151Z,41.70
2022-08-26T08:14:22.163Z,42.20
2022-08-26T08:16:51.204Z,42.80
2022-08-26T08:19:22.981Z,42.70
2022-08-26T08:21:51.856Z,42.50
2022-08-26T08:24:20.060Z,42.60
2022-08-26T08:26:48.612Z,43.30
2022-08-26T08:29:17.741Z,43.00
2022-08-26T08:31:56.948Z,42.70
2022-08-26T08:34:27.874Z,42.70
2022-08-26T08:36:55.939Z,43.30
2022-08-26T08:39:23.733Z,43.50
2022-08-26T08:42:15.989Z,43.70
2022-08-26T08:44:52.546Z,43.90
2022-08-26T08:47:28.971Z,43.80
2022-08-26T08:50:00.980Z,44.50
2022-08-26T08:52:31.513Z,44.60
2022-08-26T08:54:59.598Z,44.80
2022-08-26T08:57:32.858Z,45.20
2022-08-26T09:00:12.253Z,44.90
2022-08-26T09:02:47.638Z,44.80
2022-08-26T09:05:21.312Z,44.60
2022-08-26T09:07:54.672Z,43.90
2022-08-26T09:10:33.069Z,43.70
2022-08-26T09:13:07.523Z,43.80
2022-08-26T09:15:48.656Z,43.70
2022-08-26T09:18:34.447Z,43.60
2022-08-26T09:21:04.376Z,42.80
2022-08-26T09:23:34.116Z,42.00
2022-08-26T09:26:15.289Z,40.90
2022-08-26T09:28:46.800Z,38.60
2022-08-26T09:31:23.370Z,37.90
2022-08-26T09:34:07.078Z,36.80
2022-08-26T09:36:41.004Z,36.80
2022-08-26T09:39:26.379Z,37.30
2022-08-26T09:42:05.766Z,36.90
2022-08-26T09:44:35.210Z,37.20
2022-08-26T09:47:07.551Z,36.20
2022-08-26T09:49:38.184Z,34.90
2022-08-26T09:52:14.838Z,33.90
2022-08-26T09:54:44.243Z,34.00
2022-08-26T09:57:18.170Z,33.70
2022-08-26T09:59:46.457Z,33.30
2022-08-26T10:02:37.931Z,33.10
2022-08-26T10:05:10.577Z,33.20
2022-08-26T10:07:43.895Z,33.40
2022-08-26T10:10:16.870Z,33.20
2022-08-26T10:12:56.796Z,32.90
2022-08-26T10:15:27.343Z,31.80
2022-08-26T10:18:05.412Z,30.80
2022-08-26T10:20:37.471Z,30.80
2022-08-26T10:23:12.103Z,30.60
2022-08-26T10:25:48.117Z,31.10
2022-08-26T10:28:26.361Z,32.90
2022-08-26T10:30:59.561Z,33.50
2022-08-26T10:33:28.879Z,34.10
2022-08-26T10:36:00.039Z,33.20
2022-08-26T10:38:34.488Z,33.30
2022-08-26T10:41:09.763Z,33.40
2022-08-26T10:43:42.297Z,32.70
2022-08-26T10:46:16.988Z,31.70
2022-08-26T10:48:50.227Z,30.40
2022-08-26T10:51:24.636Z,29.60
2022-08-26T10:53:58.076Z,29.20
2022-08-26T10:56:38.187Z,29.00
2022-08-26T10:59:13.678Z,28.30
2022-08-26T11:01:50.996Z,28.40
2022-08-26T11:04:52.384Z,28.10
2022-08-26T11:07:40.624Z,27.90
2022-08-26T11:10:12.269Z,27.80
2022-08-26T11:12:55.787Z,27.90
2022-08-26T11:16:08.178Z,27.70
2022-08-26T11:18:55.790Z,27.80
2022-08-26T11:21:52.824Z,28.00
2022-08-26T11:24:46.469Z,28.10
2022-08-26T11:28:02.115Z,29.00
2022-08-26T11:30:56.906Z,29.60
2022-08-26T11:33:59.902Z,29.40
2022-08-26T11:36:43.843Z,28.80
2022-08-26T11:39:20.143Z,28.50
2022-08-26T11:41:52.837Z,28.70
2022-08-26T11:44:23.340Z,28.80
2022-08-26T11:46:58.039Z,28.80
2022-08-26T11:49:26.884Z,28.90
2022-08-26T11:52:09.261Z,29.00
2022-08-26T11:54:39.093Z,28.50
2022-08-26T11:57:13.227Z,28.00
2022-08-26T11:59:43.340Z,28.40
2022-08-26T12:02:17.932Z,28.20
2022-08-26T12:04:49.317Z,28.40
2022-08-26T12:07:18.512Z,29.90
2022-08-26T12:09:56.520Z,30.20
2022-08-26T12:12:30.753Z,30.80
2022-08-26T12:15:11.940Z,31.20
2022-08-26T12:17:40.795Z,31.20
2022-08-26T12:20:20.286Z,31.30
2022-08-26T12:22:48.483Z,31.70
2022-08-26T12:25:24.933Z,32.10
2022-08-26T12:27:54.019Z,32.40
2022-08-26T12:30:24.429Z,32.00
2022-08-26T12:33:10.835Z,32.20
2022-08-26T12:35:56.706Z,31.80
2022-08-26T12:38:25.711Z,32.20
2022-08-26T12:40:55.643Z,32.80
2022-08-26T12:43:41.764Z,33.00
2022-08-26T12:46:12.095Z,32.60
2022-08-26T12:48:43.860Z,32.60
2022-08-26T12:51:22.391Z,32.20
2022-08-26T12:53:50.299Z,31.20
2022-08-26T12:56:28.521Z,31.70
2022-08-26T12:59:21.782Z,31.90
2022-08-26T13:01:50.278Z,31.80
2022-08-26T13:04:36.610Z,31.20
2022-08-26T13:07:22.038Z,31.00
2022-08-26T13:09:51.068Z,31.10
2022-08-26T13:12:34.816Z,31.30
2022-08-26T13:15:04.274Z,30.90
2022-08-26T13:17:32.245Z,30.60
2022-08-26T13:20:04.013Z,30.20
2022-08-26T13:22:33.604Z,31.10
2022-08-26T13:25:01.434Z,31.60
2022-08-26T13:27:29.496Z,32.80
2022-08-26T13:29:59.695Z,33.20
2022-08-26T13:32:28.103Z,33.70
2022-08-26T13:34:57.651Z,34.90
2022-08-26T13:37:34.271Z,36.40
2022-08-26T13:40:03.998Z,36.60
2022-08-26T13:42:31.811Z,36.90
2022-08-26T13:45:01.002Z,36.40
2022-08-26T13:47:28.784Z,36.10
2022-08-26T13:49:57.069Z,36.10
2022-08-26T13:52:30.337Z,36.10
2022-08-26T13:54:58.851Z,36.10
2022-08-26T13:57:28.215Z,36.00
2022-08-26T13:59:58.801Z,35.90
2022-08-26T14:02:28.717Z,35.90
2022-08-26T14:04:56.543Z,35.70
2022-08-26T14:07:25.059Z,35.90
2022-08-26T14:09:52.877Z,35.90
2022-08-26T14:12:20.796Z,36.20
2022-08-26T14:14:48.655Z,36.40
2022-08-26T14:17:21.022Z,36.30
2022-08-26T14:19:51.422Z,36.40
2022-08-26T14:22:21.200Z,36.20
2022-08-26T14:24:50.153Z,36.70
2022-08-26T14:27:17.878Z,37.60
2022-08-26T14:29:45.679Z,37.90
2022-08-26T14:32:18.014Z,38.30
2022-08-26T14:34:50.895Z,39.50
2022-08-26T14:37:19.631Z,39.90
2022-08-26T14:39:48.061Z,40.80
2022-08-26T14:42:20.717Z,41.00
2022-08-26T14:44:53.657Z,41.40
2022-08-26T14:47:21.465Z,42.00
2022-08-26T14:49:50.658Z,42.30
2022-08-26T14:52:19.003Z,42.60
2022-08-26T14:54:45.819Z,43.00
2022-08-26T14:57:14.860Z,43.90
2022-08-26T14:59:50.261Z,47.70
2022-08-26T15:02:33.180Z,49.20
2022-08-26T15:05:04.331Z,50.00
2022-08-26T15:07:32.702Z,51.10
2022-08-26T15:10:00.601Z,51.30
2022-08-26T15:12:28.645Z,51.10
2022-08-26T15:14:56.474Z,50.80
2022-08-26T15:17:24.348Z,50.10
2022-08-26T15:19:52.437Z,50.10
2022-08-26T15:22:21.587Z,48.80
2022-08-26T15:24:51.774Z,48.30
2022-08-26T15:27:22.003Z,48.10
2022-08-26T15:29:49.800Z,47.80
2022-08-26T15:32:17.561Z,48.00
2022-08-26T15:34:45.680Z,48.80
2022-08-26T15:37:13.524Z,49.10
2022-08-26T15:39:43.132Z,49.90
2022-08-26T15:42:11.491Z,50.10
2022-08-26T15:44:44.454Z,50.10
2022-08-26T15:47:12.705Z,50.00
2022-08-26T15:49:40.824Z,49.30
2022-08-26T15:52:09.208Z,49.80
2022-08-26T15:54:37.398Z,48.70
2022-08-26T15:57:09.472Z,46.50
2022-08-26T15:59:39.265Z,46.10
2022-08-26T16:02:07.100Z,45.60
2022-08-26T16:04:35.396Z,45.30
2022-08-26T16:07:04.259Z,44.90
2022-08-26T16:09:32.101Z,44.90
2022-08-26T16:11:59.992Z,45.50
2022-08-26T16:14:29.143Z,45.70
2022-08-26T16:16:59.923Z,46.50
2022-08-26T16:19:27.919Z,46.70
2022-08-26T16:21:55.806Z,46.80
2022-08-26T16:24:28.433Z,46.70
2022-08-26T16:26:58.219Z,46.80
2022-08-26T16:29:26.073Z,47.00
2022-08-26T16:31:55.648Z,46.90
2022-08-26T16:34:23.619Z,47.30
2022-08-26T16:36:51.976Z,48.60
2022-08-26T16:39:19.849Z,49.60
2022-08-26T16:41:47.627Z,50.40
2022-08-26T16:44:15.516Z,50.90
2022-08-26T16:46:43.414Z,51.30
2022-08-26T16:49:12.511Z,51.70
2022-08-26T16:51:40.327Z,52.20
2022-08-26T16:54:09.168Z,52.60
2022-08-26T16:56:38.235Z,52.80
2022-08-26T16:59:09.180Z,53.10
2022-08-26T17:01:37.004Z,53.30
2022-08-26T17:04:05.111Z,53.70
2022-08-26T17:06:34.641Z,53.90
2022-08-26T17:09:02.448Z,53.90
2022-08-26T17:11:30.393Z,53.90
2022-08-26T17:13:58.227Z,54.10
2022-08-26T17:16:27.097Z,54.30
2022-08-26T17:18:56.113Z,54.40
2022-08-26T17:21:24.051Z,54.40
2022-08-26T17:23:53.268Z,54.30
2022-08-26T17:26:21.155Z,54.40
2022-08-26T17:28:48.976Z,54.40
2022-08-26T17:31:17.053Z,54.40
2022-08-26T17:33:48.885Z,54.40
2022-08-26T17:36:21.901Z,54.50
2022-08-26T17:38:50.264Z,54.60
2022-08-26T17:41:23.320Z,55.00
2022-08-26T17:43:51.078Z,55.20
2022-08-26T17:46:18.938Z,55.50
2022-08-26T17:48:46.807Z,55.80
2022-08-26T17:51:16.850Z,55.80
2022-08-26T17:53:44.834Z,56.00
2022-08-26T17:56:14.944Z,56.10
2022-08-26T17:58:47.984Z,56.20
2022-08-26T18:01:19.900Z,56.40
2022-08-26T18:03:47.925Z,57.00
2022-08-26T18:06:16.071Z,57.00
2022-08-26T18:08:43.973Z,57.30
2022-08-26T18:11:13.989Z,57.40
2022-08-26T18:13:47.158Z,57.40
2022-08-26T18:16:18.574Z,57.60
2022-08-26T18:18:47.392Z,57.70
2022-08-26T18:21:17.151Z,57.70
2022-08-26T18:23:45.508Z,57.90
2022-08-26T18:26:17.591Z,58.10
2022-08-26T18:28:45.398Z,58.20
2022-08-26T18:31:13.304Z,58.40
2022-08-26T18:33:43.753Z,58.60
2022-08-26T18:36:17.871Z,58.80
2022-08-26T18:38:46.030Z,59.10
2022-08-26T18:41:14.408Z,59.20
2022-08-26T18:43:42.365Z,59.20
2022-08-26T18:46:11.305Z,59.10
2022-08-26T18:48:40.566Z,59.20
2022-08-26T18:51:15.912Z,59.60
2022-08-26T18:53:43.564Z,59.80
2022-08-26T18:56:13.224Z,60.00
2022-08-26T18:58:44.044Z,60.10
2022-08-26T19:01:12.062Z,60.30
2022-08-26T19:03:40.077Z,60.60
2022-08-26T19:06:09.600Z,60.80
2022-08-26T19:08:37.366Z,61.10
2022-08-26T19:11:12.444Z,61.40
2022-08-26T19:13:42.026Z,61.60
2022-08-26T19:16:16.271Z,61.50
2022-08-26T19:18:44.372Z,61.80
2022-08-26T19:21:14.447Z,62.00
2022-08-26T19:23:42.287Z,61.70
2022-08-26T19:26:11.904Z,61.60
2022-08-26T19:28:40.710Z,61.60
2022-08-26T19:31:10.692Z,61.70
2022-08-26T19:33:39.471Z,61.50
2022-08-26T19:36:11.426Z,61.70
2022-08-26T19:38:43.676Z,62.00
2022-08-26T19:41:13.469Z,63.90
2022-08-26T19:43:41.489Z,63.10
2022-08-26T19:46:13.640Z,63.10
2022-08-26T19:48:43.869Z,63.80
2022-08-26T19:51:13.840Z,63.30
2022-08-26T19:53:43.675Z,63.70
2022-08-26T19:56:11.759Z,64.70
2022-08-26T19:58:39.861Z,65.20
2022-08-26T20:01:07.977Z,65.40
2022-08-26T20:03:36.621Z,65.70
2022-08-26T20:06:05.931Z,66.70
2022-08-26T20:08:33.850Z,67.50
2022-08-26T20:11:05.760Z,67.50
2022-08-26T20:13:34.036Z,67.60
2022-08-26T20:16:01.844Z,68.00
2022-08-26T20:18:47.136Z,68.10
2022-08-26T20:21:27.517Z,68.20
2022-08-26T20:24:00.512Z,68.00
2022-08-26T20:26:31.289Z,67.90
2022-08-26T20:28:59.826Z,67.60
2022-08-26T20:31:27.947Z,67.30
2022-08-26T20:33:56.515Z,66.90
2022-08-26T20:36:26.873Z,66.80
2022-08-26T20:38:55.544Z,66.60
2022-08-26T20:41:25.381Z,66.60
2022-08-26T20:43:54.587Z,66.90
2022-08-26T20:46:24.874Z,67.10
2022-08-26T20:48:53.350Z,68.00
2022-08-26T20:51:22.939Z,68.30
2022-08-26T20:53:51.207Z,68.90
2022-08-26T20:56:23.643Z,69.30
2022-08-26T20:58:58.615Z,69.40
2022-08-26T21:01:30.429Z,69.40
2022-08-26T21:03:58.560Z,69.80
2022-08-26T21:06:26.634Z,71.50
2022-08-26T21:08:54.736Z,72.00
2022-08-26T21:11:22.741Z,72.20
2022-08-26T21:14:15.892Z,72.00
2022-08-26T21:16:41.677Z,71.80
2022-08-26T21:19:11.922Z,71.30
2022-08-26T21:21:40.777Z,70.70
2022-08-26T21:24:09.476Z,69.80
2022-08-26T21:26:37.657Z,69.40
2022-08-26T21:29:06.608Z,68.90
2022-08-26T21:31:34.930Z,68.80
2022-08-26T21:34:04.384Z,69.10
2022-08-26T21:36:32.406Z,69.30
2022-08-26T21:39:01.248Z,69.20
2022-08-26T21:41:29.217Z,69.50
2022-08-26T21:43:59.076Z,69.70
2022-08-26T21:46:28.997Z,69.80
2022-08-26T21:48:59.603Z,70.20
2022-08-26T21:51:32.031Z,70.00
2022-08-26T21:54:01.381Z,69.90
2022-08-26T21:56:32.728Z,70.20
2022-08-26T21:59:01.452Z,70.50
2022-08-26T22:01:32.298Z,70.90
2022-08-26T22:04:00.511Z,71.30
2022-08-26T22:06:29.723Z,71.30
2022-08-26T22:08:58.048Z,71.20
2022-08-26T22:11:27.417Z,71.10
2022-08-26T22:13:56.734Z,71.30
2022-08-26T22:16:26.736Z,71.30
2022-08-26T22:18:54.672Z,71.20
2022-08-26T22:21:25.896Z,71.30
2022-08-26T22:23:56.159Z,71.40
2022-08-26T22:26:27.924Z,72.40
2022-08-26T22:28:58.770Z,71.80
2022-08-26T22:31:37.847Z,71.80
2022-08-26T22:34:07.736Z,72.30
2022-08-26T22:36:35.968Z,72.90
2022-08-26T22:39:10.553Z,73.30
2022-08-26T22:41:38.576Z,74.00
2022-08-26T22:44:06.396Z,74.70
2022-08-26T22:46:34.917Z,75.20
2022-08-26T22:49:04.400Z,75.20
2022-08-26T22:51:32.559Z,75.40
2022-08-26T22:54:00.537Z,75.60
2022-08-26T22:56:29.863Z,75.40
2022-08-26T22:58:57.624Z,76.00
2022-08-26T23:01:25.578Z,75.80
2022-08-26T23:03:53.460Z,76.30
2022-08-26T23:06:21.316Z,76.10
2022-08-26T23:08:49.295Z,75.60
2022-08-26T23:11:17.306Z,75.40
2022-08-26T23:13:46.424Z,75.50
2022-08-26T23:16:14.542Z,75.60
2022-08-26T23:18:42.963Z,75.70
2022-08-26T23:21:11.564Z,75.60
2022-08-26T23:23:39.721Z,75.60
2022-08-26T23:26:08.053Z,75.50
2022-08-26T23:28:36.651Z,77.10
2022-08-26T23:31:06.520Z,76.60
2022-08-26T23:33:48.380Z,77.00
2022-08-26T23:36:18.154Z,77.00
2022-08-26T23:38:52.807Z,76.80
2022-08-26T23:41:22.243Z,76.80
2022-08-26T23:43:50.215Z,77.00
2022-08-26T23:46:19.899Z,77.50
2022-08-26T23:48:47.998Z,77.50
2022-08-26T23:51:33.748Z,78.20
2022-08-26T23:54:01.555Z,78.40
2022-08-26T23:56:29.545Z,78.60
2022-08-26T23:58:57.426Z,79.50
